sensor_id;sensor_type;location;lat;lon;timestamp;P1;durP1;ratioP1;P2;durP2;ratioP2
32800;SDS011;40572;45.552;12.072;2022-09-11T00:01:14;13.93;;;1.62;;
32800;SDS011;40572;45.552;12.072;2022-09-11T00:03:42;5.07;;;1.13;;
32800;SDS011;40572;45.552;12.072;2022-09-11T00:06:10;1.00;;;0.90;;
32800;SDS011;40572;45.552;12.072;2022-09-11T00:08:36;2.23;;;1.27;;
32800;SDS011;40572;45.552;12.072;2022-09-11T00:11:10;2.57;;;1.00;;
32800;SDS011;40572;45.552;12.072;2022-09-11T00:13:37;2.03;;;0.90;;
32800;SDS011;40572;45.552;12.072;2022-09-11T00:16:04;1.23;;;0.80;;
32800;SDS011;40572;45.552;12.072;2022-09-11T00:18:31;2.27;;;1.00;;
32800;SDS011;40572;45.552;12.072;2022-09-11T00:20:59;1.80;;;1.20;;
32800;SDS011;40572;45.552;12.072;2022-09-11T00:23:26;2.53;;;1.10;;
32800;SDS011;40572;45.552;12.072;2022-09-11T00:25:52;3.30;;;0.93;;
32800;SDS011;40572;45.552;12.072;2022-09-11T00:28:19;3.63;;;1.73;;
32800;SDS011;40572;45.552;12.072;2022-09-11T00:30:46;4.17;;;1.70;;
32800;SDS011;40572;45.552;12.072;2022-09-11T00:33:14;3.03;;;1.50;;
32800;SDS011;40572;45.552;12.072;2022-09-11T00:35:41;2.77;;;1.60;;
32800;SDS011;40572;45.552;12.072;2022-09-11T00:38:07;3.43;;;1.50;;
32800;SDS011;40572;45.552;12.072;2022-09-11T00:40:42;4.27;;;1.40;;
32800;SDS011;40572;45.552;12.072;2022-09-11T00:43:02;2.50;;;1.30;;
32800;SDS011;40572;45.552;12.072;2022-09-11T00:45:28;3.43;;;1.47;;
32800;SDS011;40572;45.552;12.072;2022-09-11T00:47:56;3.70;;;1.30;;
32800;SDS011;40572;45.552;12.072;2022-09-11T00:50:25;2.03;;;1.30;;
32800;SDS011;40572;45.552;12.072;2022-09-11T00:52:53;4.33;;;1.10;;
32800;SDS011;40572;45.552;12.072;2022-09-11T00:55:21;1.23;;;0.90;;
32800;SDS011;40572;45.552;12.072;2022-09-11T00:57:49;1.43;;;0.90;;
32800;SDS011;40572;45.552;12.072;2022-09-11T01:00:15;2.50;;;0.83;;
32800;SDS011;40572;45.552;12.072;2022-09-11T01:02:42;1.47;;;0.83;;
32800;SDS011;40572;45.552;12.072;2022-09-11T01:05:10;1.07;;;0.60;;
32800;SDS011;40572;45.552;12.072;2022-09-11T01:07:37;0.97;;;0.77;;
32800;SDS011;40572;45.552;12.072;2022-09-11T01:10:03;0.70;;;0.60;;
32800;SDS011;40572;45.552;12.072;2022-09-11T01:18:02;1.40;;;0.70;;
32800;SDS011;40572;45.552;12.072;2022-09-11T01:20:41;1.53;;;0.60;;
32800;SDS011;40572;45.552;12.072;2022-09-11T01:28:34;2.43;;;0.60;;
32800;SDS011;40572;45.552;12.072;2022-09-11T01:31:00;1.10;;;0.50;;
32800;SDS011;40572;45.552;12.072;2022-09-11T01:36:11;0.60;;;0.60;;
32800;SDS011;40572;45.552;12.072;2022-09-11T01:38:42;1.00;;;0.90;;
32800;SDS011;40572;45.552;12.072;2022-09-11T01:41:08;1.40;;;0.40;;
32800;SDS011;40572;45.552;12.072;2022-09-11T01:43:38;1.07;;;0.50;;
32800;SDS011;40572;45.552;12.072;2022-09-11T01:46:05;1.40;;;0.43;;
32800;SDS011;40572;45.552;12.072;2022-09-11T01:48:37;1.07;;;0.40;;
32800;SDS011;40572;45.552;12.072;2022-09-11T01:51:03;0.30;;;0.30;;
32800;SDS011;40572;45.552;12.072;2022-09-11T01:53:32;0.40;;;0.30;;
32800;SDS011;40572;45.552;12.072;2022-09-11T01:56:03;1.40;;;0.60;;
32800;SDS011;40572;45.552;12.072;2022-09-11T01:58:31;0.50;;;0.50;;
32800;SDS011;40572;45.552;12.072;2022-09-11T02:01:00;0.43;;;0.40;;
32800;SDS011;40572;45.552;12.072;2022-09-11T02:03:46;1.90;;;0.40;;
32800;SDS011;40572;45.552;12.072;2022-09-11T02:06:00;0.67;;;0.40;;
32800;SDS011;40572;45.552;12.072;2022-09-11T02:11:13;0.60;;;0.40;;
32800;SDS011;40572;45.552;12.072;2022-09-11T02:19:03;0.40;;;0.40;;
32800;SDS011;40572;45.552;12.072;2022-09-11T02:21:29;0.50;;;0.40;;
32800;SDS011;40572;45.552;12.072;2022-09-11T02:23:56;0.70;;;0.50;;
32800;SDS011;40572;45.552;12.072;2022-09-11T02:26:24;0.47;;;0.47;;
32800;SDS011;40572;45.552;12.072;2022-09-11T02:28:51;1.63;;;0.40;;
32800;SDS011;40572;45.552;12.072;2022-09-11T02:31:17;0.60;;;0.50;;
32800;SDS011;40572;45.552;12.072;2022-09-11T02:33:45;0.77;;;0.40;;
32800;SDS011;40572;45.552;12.072;2022-09-11T02:38:56;0.60;;;0.40;;
32800;SDS011;40572;45.552;12.072;2022-09-11T02:41:22;1.00;;;0.70;;
32800;SDS011;40572;45.552;12.072;2022-09-11T02:43:52;0.40;;;0.40;;
32800;SDS011;40572;45.552;12.072;2022-09-11T02:56:46;0.50;;;0.50;;
32800;SDS011;40572;45.552;12.072;2022-09-11T02:59:15;0.60;;;0.50;;
32800;SDS011;40572;45.552;12.072;2022-09-11T03:01:44;0.47;;;0.47;;
32800;SDS011;40572;45.552;12.072;2022-09-11T03:04:11;1.13;;;0.50;;
32800;SDS011;40572;45.552;12.072;2022-09-11T03:06:37;0.47;;;0.47;;
32800;SDS011;40572;45.552;12.072;2022-09-11T03:09:05;0.67;;;0.47;;
32800;SDS011;40572;45.552;12.072;2022-09-11T03:11:32;0.73;;;0.50;;
32800;SDS011;40572;45.552;12.072;2022-09-11T03:13:59;0.97;;;0.40;;
32800;SDS011;40572;45.552;12.072;2022-09-11T03:16:26;1.10;;;0.60;;
32800;SDS011;40572;45.552;12.072;2022-09-11T03:18:52;0.97;;;0.67;;
32800;SDS011;40572;45.552;12.072;2022-09-11T03:21:18;0.77;;;0.60;;
32800;SDS011;40572;45.552;12.072;2022-09-11T03:23:45;0.63;;;0.60;;
32800;SDS011;40572;45.552;12.072;2022-09-11T03:26:12;1.17;;;0.83;;
32800;SDS011;40572;45.552;12.072;2022-09-11T03:28:38;0.80;;;0.80;;
32800;SDS011;40572;45.552;12.072;2022-09-11T03:31:05;2.20;;;0.63;;
32800;SDS011;40572;45.552;12.072;2022-09-11T03:33:35;0.73;;;0.70;;
32800;SDS011;40572;45.552;12.072;2022-09-11T03:36:02;2.17;;;1.10;;
32800;SDS011;40572;45.552;12.072;2022-09-11T03:38:28;1.53;;;0.80;;
32800;SDS011;40572;45.552;12.072;2022-09-11T03:40:55;1.00;;;0.90;;
32800;SDS011;40572;45.552;12.072;2022-09-11T03:43:22;0.93;;;0.80;;
32800;SDS011;40572;45.552;12.072;2022-09-11T03:45:48;0.90;;;0.90;;
32800;SDS011;40572;45.552;12.072;2022-09-11T03:48:15;3.07;;;1.30;;
32800;SDS011;40572;45.552;12.072;2022-09-11T03:50:41;1.00;;;0.90;;
32800;SDS011;40572;45.552;12.072;2022-09-11T03:53:10;1.30;;;1.20;;
32800;SDS011;40572;45.552;12.072;2022-09-11T03:55:37;1.07;;;0.90;;
32800;SDS011;40572;45.552;12.072;2022-09-11T03:58:03;1.30;;;1.20;;
32800;SDS011;40572;45.552;12.072;2022-09-11T04:00:29;1.70;;;1.20;;
32800;SDS011;40572;45.552;12.072;2022-09-11T04:03:14;1.10;;;1.00;;
32800;SDS011;40572;45.552;12.072;2022-09-11T04:05:42;1.17;;;1.00;;
32800;SDS011;40572;45.552;12.072;2022-09-11T04:08:11;1.50;;;1.10;;
32800;SDS011;40572;45.552;12.072;2022-09-11T04:10:39;1.67;;;1.10;;
32800;SDS011;40572;45.552;12.072;2022-09-11T04:13:07;1.53;;;0.90;;
32800;SDS011;40572;45.552;12.072;2022-09-11T04:15:33;1.70;;;1.22;;
32800;SDS011;40572;45.552;12.072;2022-09-11T04:18:03;1.60;;;1.00;;
32800;SDS011;40572;45.552;12.072;2022-09-11T04:20:30;2.73;;;1.23;;
32800;SDS011;40572;45.552;12.072;2022-09-11T04:22:57;1.30;;;1.00;;
32800;SDS011;40572;45.552;12.072;2022-09-11T04:25:23;1.60;;;0.93;;
32800;SDS011;40572;45.552;12.072;2022-09-11T04:27:50;1.07;;;0.97;;
32800;SDS011;40572;45.552;12.072;2022-09-11T04:30:16;2.20;;;1.10;;
32800;SDS011;40572;45.552;12.072;2022-09-11T04:32:45;1.53;;;1.03;;
32800;SDS011;40572;45.552;12.072;2022-09-11T04:35:12;1.40;;;1.20;;
32800;SDS011;40572;45.552;12.072;2022-09-11T04:37:41;1.50;;;1.40;;
32800;SDS011;40572;45.552;12.072;2022-09-11T04:40:07;1.70;;;1.20;;
32800;SDS011;40572;45.552;12.072;2022-09-11T04:42:34;1.27;;;1.17;;
32800;SDS011;40572;45.552;12.072;2022-09-11T04:45:01;1.73;;;1.23;;
32800;SDS011;40572;45.552;12.072;2022-09-11T04:47:27;2.93;;;1.10;;
32800;SDS011;40572;45.552;12.072;2022-09-11T04:49:54;1.33;;;1.23;;
32800;SDS011;40572;45.552;12.072;2022-09-11T04:52:22;1.73;;;1.37;;
32800;SDS011;40572;45.552;12.072;2022-09-11T04:54:49;1.67;;;1.30;;
32800;SDS011;40572;45.552;12.072;2022-09-11T04:57:16;2.07;;;1.50;;
32800;SDS011;40572;45.552;12.072;2022-09-11T04:59:42;2.97;;;1.37;;
32800;SDS011;40572;45.552;12.072;2022-09-11T05:02:10;3.10;;;1.67;;
32800;SDS011;40572;45.552;12.072;2022-09-11T05:04:39;2.00;;;1.57;;
32800;SDS011;40572;45.552;12.072;2022-09-11T05:07:06;3.13;;;1.33;;
32800;SDS011;40572;45.552;12.072;2022-09-11T05:09:33;4.23;;;1.90;;
32800;SDS011;40572;45.552;12.072;2022-09-11T05:12:00;2.30;;;2.10;;
32800;SDS011;40572;45.552;12.072;2022-09-11T05:14:29;2.40;;;2.20;;
32800;SDS011;40572;45.552;12.072;2022-09-11T05:16:57;3.47;;;2.03;;
32800;SDS011;40572;45.552;12.072;2022-09-11T05:19:25;2.60;;;1.80;;
32800;SDS011;40572;45.552;12.072;2022-09-11T05:21:51;3.37;;;2.33;;
32800;SDS011;40572;45.552;12.072;2022-09-11T05:24:17;1.70;;;1.60;;
32800;SDS011;40572;45.552;12.072;2022-09-11T05:26:44;1.40;;;1.30;;
32800;SDS011;40572;45.552;12.072;2022-09-11T05:29:14;1.70;;;1.57;;
32800;SDS011;40572;45.552;12.072;2022-09-11T05:31:56;2.13;;;1.50;;
32800;SDS011;40572;45.552;12.072;2022-09-11T05:34:25;1.83;;;1.43;;
32800;SDS011;40572;45.552;12.072;2022-09-11T05:36:54;1.67;;;1.30;;
32800;SDS011;40572;45.552;12.072;2022-09-11T05:39:24;1.73;;;1.20;;
32800;SDS011;40572;45.552;12.072;2022-09-11T05:41:51;1.40;;;1.27;;
32800;SDS011;40572;45.552;12.072;2022-09-11T05:44:17;2.07;;;1.37;;
32800;SDS011;40572;45.552;12.072;2022-09-11T05:46:44;2.07;;;1.30;;
32800;SDS011;40572;45.552;12.072;2022-09-11T05:49:10;1.30;;;1.20;;
32800;SDS011;40572;45.552;12.072;2022-09-11T05:51:38;1.50;;;1.40;;
32800;SDS011;40572;45.552;12.072;2022-09-11T05:54:06;1.37;;;1.27;;
32800;SDS011;40572;45.552;12.072;2022-09-11T05:56:32;2.50;;;1.50;;
32800;SDS011;40572;45.552;12.072;2022-09-11T05:59:01;1.43;;;1.30;;
32800;SDS011;40572;45.552;12.072;2022-09-11T06:01:29;1.50;;;1.40;;
32800;SDS011;40572;45.552;12.072;2022-09-11T06:04:00;2.03;;;1.40;;
32800;SDS011;40572;45.552;12.072;2022-09-11T06:06:28;1.30;;;1.20;;
32800;SDS011;40572;45.552;12.072;2022-09-11T06:08:54;1.30;;;1.20;;
32800;SDS011;40572;45.552;12.072;2022-09-11T06:11:20;1.77;;;1.50;;
32800;SDS011;40572;45.552;12.072;2022-09-11T06:13:47;2.20;;;1.50;;
32800;SDS011;40572;45.552;12.072;2022-09-11T06:16:15;1.60;;;1.50;;
32800;SDS011;40572;45.552;12.072;2022-09-11T06:18:41;2.87;;;1.40;;
32800;SDS011;40572;45.552;12.072;2022-09-11T06:21:09;1.17;;;1.13;;
32800;SDS011;40572;45.552;12.072;2022-09-11T06:23:38;1.60;;;1.50;;
32800;SDS011;40572;45.552;12.072;2022-09-11T06:26:08;1.63;;;1.30;;
32800;SDS011;40572;45.552;12.072;2022-09-11T06:28:36;1.50;;;1.40;;
32800;SDS011;40572;45.552;12.072;2022-09-11T06:31:03;1.90;;;1.57;;
32800;SDS011;40572;45.552;12.072;2022-09-11T06:33:35;1.60;;;1.50;;
32800;SDS011;40572;45.552;12.072;2022-09-11T06:36:06;1.60;;;1.50;;
32800;SDS011;40572;45.552;12.072;2022-09-11T06:38:30;2.13;;;1.60;;
32800;SDS011;40572;45.552;12.072;2022-09-11T06:40:57;1.70;;;1.60;;
32800;SDS011;40572;45.552;12.072;2022-09-11T06:43:24;1.67;;;1.57;;
32800;SDS011;40572;45.552;12.072;2022-09-11T06:45:53;1.90;;;1.80;;
32800;SDS011;40572;45.552;12.072;2022-09-11T06:48:19;1.85;;;1.75;;
32800;SDS011;40572;45.552;12.072;2022-09-11T06:50:45;1.98;;;1.87;;
32800;SDS011;40572;45.552;12.072;2022-09-11T06:53:12;2.90;;;1.80;;
32800;SDS011;40572;45.552;12.072;2022-09-11T06:55:40;2.17;;;2.07;;
32800;SDS011;40572;45.552;12.072;2022-09-11T06:58:09;2.37;;;2.23;;
32800;SDS011;40572;45.552;12.072;2022-09-11T07:00:35;2.27;;;2.17;;
32800;SDS011;40572;45.552;12.072;2022-09-11T07:03:03;2.33;;;2.23;;
32800;SDS011;40572;45.552;12.072;2022-09-11T07:05:29;2.50;;;2.40;;
32800;SDS011;40572;45.552;12.072;2022-09-11T07:07:57;2.37;;;2.20;;
32800;SDS011;40572;45.552;12.072;2022-09-11T07:10:25;2.63;;;2.43;;
32800;SDS011;40572;45.552;12.072;2022-09-11T07:12:53;2.60;;;2.30;;
32800;SDS011;40572;45.552;12.072;2022-09-11T07:15:20;2.63;;;2.43;;
32800;SDS011;40572;45.552;12.072;2022-09-11T07:17:46;2.67;;;2.58;;
32800;SDS011;40572;45.552;12.072;2022-09-11T07:20:13;2.90;;;2.80;;
32800;SDS011;40572;45.552;12.072;2022-09-11T07:22:40;2.70;;;2.60;;
32800;SDS011;40572;45.552;12.072;2022-09-11T07:25:08;2.90;;;2.80;;
32800;SDS011;40572;45.552;12.072;2022-09-11T07:27:36;2.90;;;2.80;;
32800;SDS011;40572;45.552;12.072;2022-09-11T07:30:02;3.00;;;2.80;;
32800;SDS011;40572;45.552;12.072;2022-09-11T07:32:30;2.87;;;2.73;;
32800;SDS011;40572;45.552;12.072;2022-09-11T07:34:57;2.80;;;2.70;;
32800;SDS011;40572;45.552;12.072;2022-09-11T07:37:23;2.90;;;2.80;;
32800;SDS011;40572;45.552;12.072;2022-09-11T07:39:51;3.00;;;2.90;;
32800;SDS011;40572;45.552;12.072;2022-09-11T07:42:19;3.10;;;3.00;;
32800;SDS011;40572;45.552;12.072;2022-09-11T07:44:46;3.20;;;3.07;;
32800;SDS011;40572;45.552;12.072;2022-09-11T07:47:13;3.20;;;3.00;;
32800;SDS011;40572;45.552;12.072;2022-09-11T07:49:41;3.20;;;3.00;;
32800;SDS011;40572;45.552;12.072;2022-09-11T07:52:08;3.20;;;3.10;;
32800;SDS011;40572;45.552;12.072;2022-09-11T07:54:42;3.20;;;3.00;;
32800;SDS011;40572;45.552;12.072;2022-09-11T07:57:09;3.33;;;3.13;;
32800;SDS011;40572;45.552;12.072;2022-09-11T07:59:36;3.10;;;2.90;;
32800;SDS011;40572;45.552;12.072;2022-09-11T08:02:04;3.00;;;2.90;;
32800;SDS011;40572;45.552;12.072;2022-09-11T08:04:30;3.07;;;2.87;;
32800;SDS011;40572;45.552;12.072;2022-09-11T08:06:57;4.57;;;2.33;;
32800;SDS011;40572;45.552;12.072;2022-09-11T08:09:25;1.57;;;1.47;;
32800;SDS011;40572;45.552;12.072;2022-09-11T08:11:52;1.50;;;1.40;;
32800;SDS011;40572;45.552;12.072;2022-09-11T08:14:20;2.90;;;1.23;;
32800;SDS011;40572;45.552;12.072;2022-09-11T08:16:48;1.50;;;1.10;;
32800;SDS011;40572;45.552;12.072;2022-09-11T08:19:20;1.23;;;1.13;;
32800;SDS011;40572;45.552;12.072;2022-09-11T08:21:43;1.00;;;1.00;;
32800;SDS011;40572;45.552;12.072;2022-09-11T08:24:13;0.90;;;0.90;;
32800;SDS011;40572;45.552;12.072;2022-09-11T08:26:40;0.90;;;0.90;;
32800;SDS011;40572;45.552;12.072;2022-09-11T08:29:06;1.20;;;1.10;;
32800;SDS011;40572;45.552;12.072;2022-09-11T08:31:32;1.32;;;0.80;;
32800;SDS011;40572;45.552;12.072;2022-09-11T08:34:00;0.70;;;0.70;;
32800;SDS011;40572;45.552;12.072;2022-09-11T08:36:26;1.67;;;0.87;;
32800;SDS011;40572;45.552;12.072;2022-09-11T08:38:54;1.40;;;0.63;;
32800;SDS011;40572;45.552;12.072;2022-09-11T08:43:52;0.60;;;0.60;;
32800;SDS011;40572;45.552;12.072;2022-09-11T08:46:19;0.67;;;0.63;;
32800;SDS011;40572;45.552;12.072;2022-09-11T08:48:49;0.60;;;0.60;;
32800;SDS011;40572;45.552;12.072;2022-09-11T08:51:15;0.93;;;0.60;;
32800;SDS011;40572;45.552;12.072;2022-09-11T08:53:43;3.10;;;1.10;;
32800;SDS011;40572;45.552;12.072;2022-09-11T08:56:13;1.43;;;0.70;;
32800;SDS011;40572;45.552;12.072;2022-09-11T08:58:56;0.90;;;0.60;;
32800;SDS011;40572;45.552;12.072;2022-09-11T09:06:53;1.13;;;0.50;;
32800;SDS011;40572;45.552;12.072;2022-09-11T09:09:21;0.40;;;0.40;;
32800;SDS011;40572;45.552;12.072;2022-09-11T09:11:48;0.50;;;0.50;;
32800;SDS011;40572;45.552;12.072;2022-09-11T09:14:27;0.50;;;0.50;;
32800;SDS011;40572;45.552;12.072;2022-09-11T09:19:31;0.90;;;0.53;;
32800;SDS011;40572;45.552;12.072;2022-09-11T09:24:43;1.63;;;0.70;;
32800;SDS011;40572;45.552;12.072;2022-09-11T09:27:14;0.70;;;0.70;;
32800;SDS011;40572;45.552;12.072;2022-09-11T09:29:39;1.07;;;0.50;;
32800;SDS011;40572;45.552;12.072;2022-09-11T09:32:13;1.27;;;0.60;;
32800;SDS011;40572;45.552;12.072;2022-09-11T09:34:36;0.80;;;0.80;;
32800;SDS011;40572;45.552;12.072;2022-09-11T09:37:17;0.63;;;0.60;;
32800;SDS011;40572;45.552;12.072;2022-09-11T09:39:33;0.70;;;0.53;;
32800;SDS011;40572;45.552;12.072;2022-09-11T09:42:08;0.70;;;0.70;;
32800;SDS011;40572;45.552;12.072;2022-09-11T09:44:39;1.23;;;0.90;;
32800;SDS011;40572;45.552;12.072;2022-09-11T09:47:07;1.20;;;0.90;;
32800;SDS011;40572;45.552;12.072;2022-09-11T09:49:33;1.73;;;1.10;;
32800;SDS011;40572;45.552;12.072;2022-09-11T09:52:01;1.23;;;0.97;;
32800;SDS011;40572;45.552;12.072;2022-09-11T09:54:30;1.60;;;1.00;;
32800;SDS011;40572;45.552;12.072;2022-09-11T09:57:03;1.10;;;0.90;;
32800;SDS011;40572;45.552;12.072;2022-09-11T09:59:35;1.00;;;0.90;;
32800;SDS011;40572;45.552;12.072;2022-09-11T10:01:57;1.67;;;0.87;;
32800;SDS011;40572;45.552;12.072;2022-09-11T10:04:24;0.90;;;0.80;;
32800;SDS011;40572;45.552;12.072;2022-09-11T10:09:35;0.63;;;0.63;;
32800;SDS011;40572;45.552;12.072;2022-09-11T10:12:02;0.70;;;0.70;;
32800;SDS011;40572;45.552;12.072;2022-09-11T10:14:30;1.47;;;0.70;;
32800;SDS011;40572;45.552;12.072;2022-09-11T10:16:57;1.50;;;0.73;;
32800;SDS011;40572;45.552;12.072;2022-09-11T10:19:35;0.70;;;0.70;;
32800;SDS011;40572;45.552;12.072;2022-09-11T10:21:52;1.03;;;0.60;;
32800;SDS011;40572;45.552;12.072;2022-09-11T10:24:21;0.60;;;0.60;;
32800;SDS011;40572;45.552;12.072;2022-09-11T10:26:48;1.30;;;0.67;;
32800;SDS011;40572;45.552;12.072;2022-09-11T10:29:18;0.57;;;0.57;;
32800;SDS011;40572;45.552;12.072;2022-09-11T10:31:52;1.00;;;0.70;;
32800;SDS011;40572;45.552;12.072;2022-09-11T10:34:15;0.87;;;0.70;;
32800;SDS011;40572;45.552;12.072;2022-09-11T10:36:50;1.10;;;0.70;;
32800;SDS011;40572;45.552;12.072;2022-09-11T10:39:12;0.80;;;0.80;;
32800;SDS011;40572;45.552;12.072;2022-09-11T10:41:38;0.50;;;0.50;;
32800;SDS011;40572;45.552;12.072;2022-09-11T10:44:09;0.80;;;0.70;;
32800;SDS011;40572;45.552;12.072;2022-09-11T10:46:34;0.50;;;0.50;;
32800;SDS011;40572;45.552;12.072;2022-09-11T10:51:40;0.97;;;0.80;;
32800;SDS011;40572;45.552;12.072;2022-09-11T10:56:33;0.57;;;0.57;;
32800;SDS011;40572;45.552;12.072;2022-09-11T10:59:02;0.80;;;0.60;;
32800;SDS011;40572;45.552;12.072;2022-09-11T11:01:28;0.73;;;0.60;;
32800;SDS011;40572;45.552;12.072;2022-09-11T11:03:54;1.22;;;0.68;;
32800;SDS011;40572;45.552;12.072;2022-09-11T11:24:47;1.13;;;0.60;;
32800;SDS011;40572;45.552;12.072;2022-09-11T11:35:19;0.83;;;0.67;;
32800;SDS011;40572;45.552;12.072;2022-09-11T11:37:44;0.87;;;0.70;;
32800;SDS011;40572;45.552;12.072;2022-09-11T11:45:18;0.97;;;0.70;;
32800;SDS011;40572;45.552;12.072;2022-09-11T11:47:43;0.80;;;0.60;;
32800;SDS011;40572;45.552;12.072;2022-09-11T11:55:22;0.70;;;0.70;;
32800;SDS011;40572;45.552;12.072;2022-09-11T11:57:57;1.30;;;0.80;;
32800;SDS011;40572;45.552;12.072;2022-09-11T12:00:22;0.60;;;0.60;;
32800;SDS011;40572;45.552;12.072;2022-09-11T12:05:17;0.50;;;0.50;;
32800;SDS011;40572;45.552;12.072;2022-09-11T12:07:44;1.60;;;0.90;;
32800;SDS011;40572;45.552;12.072;2022-09-11T12:10:25;0.80;;;0.67;;
32800;SDS011;40572;45.552;12.072;2022-09-11T12:12:51;1.03;;;0.70;;
32800;SDS011;40572;45.552;12.072;2022-09-11T12:15:18;1.23;;;0.70;;
32800;SDS011;40572;45.552;12.072;2022-09-11T12:17:44;0.63;;;0.50;;
32800;SDS011;40572;45.552;12.072;2022-09-11T12:20:26;0.80;;;0.63;;
32800;SDS011;40572;45.552;12.072;2022-09-11T12:22:43;0.83;;;0.60;;
32800;SDS011;40572;45.552;12.072;2022-09-11T12:32:45;0.50;;;0.50;;
32800;SDS011;40572;45.552;12.072;2022-09-11T12:35:19;0.50;;;0.50;;
32800;SDS011;40572;45.552;12.072;2022-09-11T12:37:48;0.73;;;0.60;;
32800;SDS011;40572;45.552;12.072;2022-09-11T12:40:15;0.43;;;0.40;;
32800;SDS011;40572;45.552;12.072;2022-09-11T12:45:34;0.80;;;0.50;;
32800;SDS011;40572;45.552;12.072;2022-09-11T12:47:45;0.50;;;0.50;;
32800;SDS011;40572;45.552;12.072;2022-09-11T12:57:58;0.80;;;0.73;;
32800;SDS011;40572;45.552;12.072;2022-09-11T13:00:37;0.40;;;0.40;;
32800;SDS011;40572;45.552;12.072;2022-09-11T13:03:04;0.50;;;0.50;;
32800;SDS011;40572;45.552;12.072;2022-09-11T13:05:35;0.60;;;0.53;;
32800;SDS011;40572;45.552;12.072;2022-09-11T13:08:15;0.57;;;0.50;;
32800;SDS011;40572;45.552;12.072;2022-09-11T13:10:42;0.50;;;0.50;;
32800;SDS011;40572;45.552;12.072;2022-09-11T13:15:55;0.40;;;0.40;;
32800;SDS011;40572;45.552;12.072;2022-09-11T13:18:30;0.43;;;0.43;;
32800;SDS011;40572;45.552;12.072;2022-09-11T13:23:29;1.10;;;0.50;;
32800;SDS011;40572;45.552;12.072;2022-09-11T13:25:55;0.57;;;0.50;;
32800;SDS011;40572;45.552;12.072;2022-09-11T13:28:23;0.87;;;0.60;;
32800;SDS011;40572;45.552;12.072;2022-09-11T13:30:59;1.80;;;0.60;;
32800;SDS011;40572;45.552;12.072;2022-09-11T13:33:21;0.37;;;0.37;;
32800;SDS011;40572;45.552;12.072;2022-09-11T13:35:48;0.53;;;0.53;;
32800;SDS011;40572;45.552;12.072;2022-09-11T13:38:22;0.60;;;0.60;;
32800;SDS011;40572;45.552;12.072;2022-09-11T13:40:54;0.60;;;0.60;;
32800;SDS011;40572;45.552;12.072;2022-09-11T13:43:18;0.70;;;0.50;;
32800;SDS011;40572;45.552;12.072;2022-09-11T13:45:45;1.37;;;0.60;;
32800;SDS011;40572;45.552;12.072;2022-09-11T13:48:19;0.90;;;0.50;;
32800;SDS011;40572;45.552;12.072;2022-09-11T13:50:45;0.80;;;0.50;;
32800;SDS011;40572;45.552;12.072;2022-09-11T13:53:12;0.50;;;0.50;;
32800;SDS011;40572;45.552;12.072;2022-09-11T13:55:38;0.40;;;0.40;;
32800;SDS011;40572;45.552;12.072;2022-09-11T13:58:18;0.80;;;0.60;;
32800;SDS011;40572;45.552;12.072;2022-09-11T14:00:40;0.70;;;0.50;;
32800;SDS011;40572;45.552;12.072;2022-09-11T14:06:31;0.60;;;0.60;;
32800;SDS011;40572;45.552;12.072;2022-09-11T14:10:47;0.63;;;0.63;;
32800;SDS011;40572;45.552;12.072;2022-09-11T14:13:24;0.70;;;0.70;;
32800;SDS011;40572;45.552;12.072;2022-09-11T14:15:56;1.13;;;0.60;;
32800;SDS011;40572;45.552;12.072;2022-09-11T14:18:25;0.83;;;0.80;;
32800;SDS011;40572;45.552;12.072;2022-09-11T14:20:51;2.73;;;1.00;;
32800;SDS011;40572;45.552;12.072;2022-09-11T14:23:28;1.00;;;0.90;;
32800;SDS011;40572;45.552;12.072;2022-09-11T14:26:07;1.80;;;1.17;;
32800;SDS011;40572;45.552;12.072;2022-09-11T14:31:04;1.80;;;0.77;;
32800;SDS011;40572;45.552;12.072;2022-09-11T14:33:32;2.43;;;0.83;;
32800;SDS011;40572;45.552;12.072;2022-09-11T14:36:01;0.57;;;0.50;;
32800;SDS011;40572;45.552;12.072;2022-09-11T14:38:26;0.67;;;0.67;;
32800;SDS011;40572;45.552;12.072;2022-09-11T14:41:00;1.70;;;0.90;;
32800;SDS011;40572;45.552;12.072;2022-09-11T14:43:28;1.47;;;0.87;;
32800;SDS011;40572;45.552;12.072;2022-09-11T14:45:57;0.70;;;0.70;;
32800;SDS011;40572;45.552;12.072;2022-09-11T14:48:24;0.60;;;0.60;;
32800;SDS011;40572;45.552;12.072;2022-09-11T14:50:50;1.73;;;0.50;;
32800;SDS011;40572;45.552;12.072;2022-09-11T14:53:19;1.02;;;0.78;;
32800;SDS011;40572;45.552;12.072;2022-09-11T14:55:44;0.93;;;0.63;;
32800;SDS011;40572;45.552;12.072;2022-09-11T14:58:11;0.93;;;0.50;;
32800;SDS011;40572;45.552;12.072;2022-09-11T15:00:37;0.75;;;0.68;;
32800;SDS011;40572;45.552;12.072;2022-09-11T15:03:03;0.65;;;0.62;;
32800;SDS011;40572;45.552;12.072;2022-09-11T15:05:29;0.62;;;0.62;;
32800;SDS011;40572;45.552;12.072;2022-09-11T15:07:57;0.70;;;0.70;;
32800;SDS011;40572;45.552;12.072;2022-09-11T15:10:23;0.57;;;0.57;;
32800;SDS011;40572;45.552;12.072;2022-09-11T15:12:50;1.07;;;0.60;;
32800;SDS011;40572;45.552;12.072;2022-09-11T15:15:18;0.80;;;0.60;;
32800;SDS011;40572;45.552;12.072;2022-09-11T15:17:45;0.60;;;0.60;;
32800;SDS011;40572;45.552;12.072;2022-09-11T15:20:11;0.68;;;0.60;;
32800;SDS011;40572;45.552;12.072;2022-09-11T15:22:37;1.85;;;0.95;;
32800;SDS011;40572;45.552;12.072;2022-09-11T15:25:04;1.27;;;0.87;;
32800;SDS011;40572;45.552;12.072;2022-09-11T15:27:31;1.40;;;0.67;;
32800;SDS011;40572;45.552;12.072;2022-09-11T15:29:57;0.80;;;0.80;;
32800;SDS011;40572;45.552;12.072;2022-09-11T15:32:23;0.95;;;0.62;;
32800;SDS011;40572;45.552;12.072;2022-09-11T15:34:49;0.90;;;0.72;;
32800;SDS011;40572;45.552;12.072;2022-09-11T15:37:16;0.97;;;0.70;;
32800;SDS011;40572;45.552;12.072;2022-09-11T15:39:42;0.75;;;0.60;;
32800;SDS011;40572;45.552;12.072;2022-09-11T15:42:09;0.90;;;0.70;;
32800;SDS011;40572;45.552;12.072;2022-09-11T15:44:35;0.72;;;0.70;;
32800;SDS011;40572;45.552;12.072;2022-09-11T15:47:02;1.67;;;0.90;;
32800;SDS011;40572;45.552;12.072;2022-09-11T15:49:29;0.63;;;0.60;;
32800;SDS011;40572;45.552;12.072;2022-09-11T15:51:57;0.77;;;0.57;;
32800;SDS011;40572;45.552;12.072;2022-09-11T15:54:23;0.53;;;0.50;;
32800;SDS011;40572;45.552;12.072;2022-09-11T15:56:50;0.60;;;0.40;;
32800;SDS011;40572;45.552;12.072;2022-09-11T15:59:16;0.80;;;0.70;;
32800;SDS011;40572;45.552;12.072;2022-09-11T16:01:43;0.93;;;0.63;;
32800;SDS011;40572;45.552;12.072;2022-09-11T16:04:10;0.67;;;0.60;;
32800;SDS011;40572;45.552;12.072;2022-09-11T16:06:38;1.27;;;0.60;;
32800;SDS011;40572;45.552;12.072;2022-09-11T16:09:06;1.07;;;0.70;;
32800;SDS011;40572;45.552;12.072;2022-09-11T16:11:33;0.70;;;0.60;;
32800;SDS011;40572;45.552;12.072;2022-09-11T16:14:01;0.40;;;0.40;;
32800;SDS011;40572;45.552;12.072;2022-09-11T16:16:28;1.87;;;0.70;;
32800;SDS011;40572;45.552;12.072;2022-09-11T16:18:54;0.60;;;0.60;;
32800;SDS011;40572;45.552;12.072;2022-09-11T16:21:22;3.13;;;0.60;;
32800;SDS011;40572;45.552;12.072;2022-09-11T16:23:48;1.52;;;0.70;;
32800;SDS011;40572;45.552;12.072;2022-09-11T16:26:15;1.82;;;0.55;;
32800;SDS011;40572;45.552;12.072;2022-09-11T16:28:43;0.60;;;0.60;;
32800;SDS011;40572;45.552;12.072;2022-09-11T16:31:09;0.60;;;0.60;;
32800;SDS011;40572;45.552;12.072;2022-09-11T16:33:36;1.33;;;0.60;;
32800;SDS011;40572;45.552;12.072;2022-09-11T16:36:05;0.93;;;0.70;;
32800;SDS011;40572;45.552;12.072;2022-09-11T16:38:33;1.10;;;0.67;;
32800;SDS011;40572;45.552;12.072;2022-09-11T16:43:28;2.07;;;1.07;;
32800;SDS011;40572;45.552;12.072;2022-09-11T16:45:56;1.93;;;0.70;;